Terminal Aerodrome Forecast
Issued by NWS Jackson, MS

Home | Current Version | Previous Version | Text Only | Print | Product List | Glossary On
Versions: 1 2 3 4 5 6 7 8 9 10 11 12 13 14 15 16 17 18 19 20 21 22 23 24 25
000
FTUS44 KJAN 110900 AAF
TAFGWO
TAF AMD
KGWO 110953Z 1110/1206 00000KT 3SM BR BKN002 BKN110
     FM111400 30004KT P6SM SCT100
     FM111900 33005KT P6SM VCTS SCT030CB BKN120
     FM120000 02003KT P6SM SCT200=

USA.gov is the U.S. government's official web portal to all federal, state and local government web resources and services.